Melaka, Malaysia

9:38 PM MYT on October 24, 2014 (GMT +0800)
Kuala Lumpur International -Sepang | Change Station
CLOSE
Current Station
Airport
Location: Kuala Lumpur,
Elevation: 69 ft
Nearby Weather Stations

Elev 69 ft 2.75 °N, 101.71 °E | Updated 8 minutes ago

Mostly Cloudy
Mostly Cloudy
79 °F
Feels Like 79 °F
N
7
Wind Variable Wind from NNE

Today
High -- | Low -- °F
--% Chance of Precip.
Yesterday
High -- | Low -- °F
Precip. -- in
6:53 AM 6:56 PM
New Moon, 0% visible
Pressure 29.86 in
Visibility 6.2 miles
Clouds Few 3000 ft
Scattered Clouds 14000 ft
Mostly Cloudy 28000 ft
Dew Point 73 °F
Humidity 83%
Rainfall 0.00 in
Snow Depth Not available.
UV 0 out of 12
Pollen Not available.
Air Quality Not available.
Flu Activity Not available.
METAR WMKK 241330Z 02006KT 320V040 9999 FEW030 SCT140 BKN280 26/23 Q1011 NOSIG

More Conditions Fewer Conditions

Pressure 29.86 in
Visibility 6.2 miles
Clouds Few 3000 ft
Scattered Clouds 14000 ft
Mostly Cloudy 28000 ft
Dew Point 73 °F
Humidity 83%
Rainfall 0.00 in
Snow Depth Not available.
UV 0 out of 12
Pollen Not available.
Air Quality Not available.
Flu Activity Not available.
METAR WMKK 241330Z 02006KT 320V040 9999 FEW030 SCT140 BKN280 26/23 Q1011 NOSIG

More Conditions Fewer Conditions

10-Day Weather Forecast

Almanac

Astronomy

Oct. 24, 2014 Rise Set
Actual Time 6:53 AM MYT 6:56 PM MYT
Civil Twilight 6:32 AM MYT 7:17 PM MYT
Nautical Twilight 6:08 AM MYT 7:42 PM MYT
Astronomical Twilight 5:43 AM MYT 8:06 PM MYT
Moon 7:01 AM MYT 7:20 PM MYT
Length of Visible Light 12h 45m
Length of Day
12h 02m
Tomorrow will be 0m 6s shorter.
New Moon, 0% of the Moon is Illuminated
Today
New Moon
Oct 30
First Quarter
Nov 6
Full
Nov 14
Last Quarter
Nov 22
New

Yesterday's Extremes

Country Highs Country Lows

Community

WunderPhotos

Upload Photos

1,764,550 photos uploaded!

WunderBlogs® & News

Nearby

Snow Depth

Not available.

Earthquake Activity

City Distance Mag. Time & Date
No recent earthquake activity has been reported nearby.
Minimum magnitude displayed is 2.5.

Coastal Water Temperatures

Place Temperature
No Stations Reporting

Nearby Weather Stations